Time;durP1;ratioP1;P1;durP2;ratioP2;P2;SDS_P1;SDS_P2;PMS_P1;PMS_P2;Temp;Humidity;BMP_temperature;BMP_pressure;BME280_temperature;BME280_humidity;BME280_pressure;Samples;Min_cycle;Max_cycle;Signal;HPM_P1;HPM_P2
2024/01/25 00:03:48;;;;;;;9.63;2.50;;;;;;;7.56;100.00;98934.56;15278708;19;20229;-63
2024/01/25 00:09:12;;;;;;;9.32;2.30;;;;;;;7.62;100.00;98924.31;15279313;19;20785;-64
2024/01/25 00:14:40;;;;;;;12.38;2.60;;;;;;;7.59;100.00;98927.25;15277344;19;20491;-64
2024/01/25 00:20:05;;;;;;;8.98;2.53;;;;;;;7.59;100.00;98903.13;15271667;19;20351;-64
2024/01/25 00:25:30;;;;;;;9.75;2.60;;;;;;;7.55;100.00;98922.16;15281119;19;20041;-63
2024/01/25 00:30:57;;;;;;;11.02;2.88;;;;;;;7.48;100.00;98931.69;15287950;19;20014;-64
2024/01/25 00:36:23;;;;;;;11.18;2.58;;;;;;;7.42;100.00;98931.38;15282573;19;20029;-63
2024/01/25 00:41:49;;;;;;;10.40;2.55;;;;;;;7.45;100.00;98923.06;15285738;19;20022;-65
2024/01/25 00:47:18;;;;;;;12.18;3.28;;;;;;;7.43;100.00;98930.38;15286269;19;20018;-63
2024/01/25 00:52:43;;;;;;;13.20;2.58;;;;;;;7.42;100.00;98942.91;15282389;19;20078;-64
2024/01/25 00:58:09;;;;;;;9.15;2.30;;;;;;;7.44;100.00;98972.31;15289716;19;20015;-64
2024/01/25 01:03:37;;;;;;;8.50;2.50;;;;;;;7.42;100.00;98955.50;15031628;19;5000869;-65
2024/01/25 01:09:02;;;;;;;10.68;2.85;;;;;;;7.39;100.00;98957.44;15291799;19;20395;-63
2024/01/25 01:14:26;;;;;;;12.82;3.17;;;;;;;7.38;100.00;98958.41;15289359;19;20659;-64
2024/01/25 01:19:54;;;;;;;11.90;2.63;;;;;;;7.33;100.00;98960.66;15289446;19;20022;-64
2024/01/25 01:25:18;;;;;;;13.25;3.05;;;;;;;7.24;100.00;98961.38;15282782;19;20434;-64
2024/01/25 01:30:44;;;;;;;9.43;2.70;;;;;;;7.19;100.00;98958.25;15289728;19;20440;-63
2024/01/25 01:36:10;;;;;;;10.65;2.67;;;;;;;7.20;100.00;98951.91;15278136;19;20026;-64
2024/01/25 01:41:35;;;;;;;15.55;3.28;;;;;;;7.16;100.00;98964.72;15287604;19;20018;-64
2024/01/25 01:46:59;;;;;;;13.85;3.10;;;;;;;7.09;100.00;98948.28;15282350;19;20023;-65
2024/01/25 01:52:27;;;;;;;13.65;2.85;;;;;;;7.00;100.00;98965.09;15285305;19;20039;-63
2024/01/25 01:57:52;;;;;;;14.07;3.25;;;;;;;6.92;100.00;98960.41;15278736;19;20025;-64
2024/01/25 02:03:17;;;;;;;11.75;2.90;;;;;;;6.86;100.00;98973.44;15281398;19;20037;-63
2024/01/25 02:08:44;;;;;;;12.23;2.97;;;;;;;6.72;100.00;98962.00;15279167;19;20085;-64
2024/01/25 02:14:11;;;;;;;13.32;3.10;;;;;;;6.78;100.00;98969.53;15285366;19;20025;-64
2024/01/25 02:19:35;;;;;;;13.70;3.00;;;;;;;6.86;100.00;98962.72;15286121;19;20348;-63
2024/01/25 02:25:04;;;;;;;13.00;2.70;;;;;;;6.89;100.00;98957.94;15026550;19;5001573;-64
2024/01/25 02:30:28;;;;;;;12.90;2.90;;;;;;;6.87;100.00;98969.78;15280614;19;20025;-63
2024/01/25 02:35:53;;;;;;;13.82;3.30;;;;;;;6.80;100.00;98953.34;15282549;19;20504;-65
2024/01/25 02:41:20;;;;;;;12.40;3.08;;;;;;;6.74;100.00;98949.34;15284967;19;20018;-64
2024/01/25 02:46:46;;;;;;;15.02;3.30;;;;;;;6.70;100.00;98989.88;15279171;19;20031;-65
2024/01/25 02:52:17;;;;;;;14.02;3.10;;;;;;;6.75;100.00;98983.19;15281891;19;20423;-63
2024/01/25 02:57:45;;;;;;;13.83;3.17;;;;;;;6.77;100.00;98975.00;15276803;19;20025;-64
2024/01/25 03:03:09;;;;;;;17.55;3.60;;;;;;;6.75;100.00;98975.16;15275415;19;20788;-63
2024/01/25 03:08:34;;;;;;;15.63;3.13;;;;;;;6.78;100.00;98961.50;15279005;19;20137;-63
2024/01/25 03:14:02;;;;;;;13.50;3.03;;;;;;;6.71;100.00;98973.69;15282150;19;20015;-63
2024/01/25 03:19:28;;;;;;;12.63;2.95;;;;;;;6.63;100.00;98965.41;15282375;19;20022;-64
2024/01/25 03:24:52;;;;;;;18.10;3.85;;;;;;;6.62;100.00;98993.16;15280486;19;20031;-64
2024/01/25 03:30:20;;;;;;;14.15;3.50;;;;;;;6.65;100.00;98987.53;15282210;19;20034;-64
2024/01/25 03:35:44;;;;;;;15.52;3.13;;;;;;;6.66;100.00;98985.72;15271700;19;20084;-64
2024/01/25 03:41:09;;;;;;;13.15;3.28;;;;;;;6.68;100.00;99002.53;15282802;19;20033;-64
2024/01/25 03:46:36;;;;;;;16.10;3.40;;;;;;;6.65;100.00;98998.25;15276844;19;20118;-64
2024/01/25 03:52:01;;;;;;;14.18;3.42;;;;;;;6.57;100.00;98993.53;15278583;19;20026;-64
2024/01/25 03:57:26;;;;;;;16.73;3.83;;;;;;;6.61;100.00;99002.16;15273571;19;20019;-63
2024/01/25 04:02:53;;;;;;;13.73;3.70;;;;;;;6.58;100.00;98992.56;15276431;19;20026;-64
2024/01/25 04:08:19;;;;;;;13.15;3.13;;;;;;;6.54;100.00;98990.22;15275001;19;20018;-64
2024/01/25 04:13:43;;;;;;;14.95;3.53;;;;;;;6.45;100.00;99014.06;15278805;19;20352;-67
2024/01/25 04:19:12;;;;;;;13.18;3.05;;;;;;;6.47;100.00;99030.00;15274763;19;20037;-64
2024/01/25 04:24:37;;;;;;;17.05;3.58;;;;;;;6.44;100.00;99031.09;15278790;19;20118;-65
2024/01/25 04:30:03;;;;;;;12.05;2.90;;;;;;;6.43;100.00;99036.59;15273149;19;20025;-64
2024/01/25 04:35:31;;;;;;;12.98;3.10;;;;;;;6.39;100.00;99051.19;15274435;19;20030;-64
2024/01/25 04:40:55;;;;;;;11.63;2.88;;;;;;;6.40;100.00;99051.06;15270007;19;20466;-61
2024/01/25 04:46:20;;;;;;;11.95;2.85;;;;;;;6.35;100.00;99053.25;15273124;19;20018;-62
2024/01/25 04:51:48;;;;;;;17.00;3.70;;;;;;;6.39;100.00;99060.06;15274468;19;20087;-62
2024/01/25 04:57:12;;;;;;;12.93;3.20;;;;;;;6.48;100.00;99067.38;15265153;19;20070;-62
2024/01/25 05:02:37;;;;;;;13.60;3.00;;;;;;;6.53;100.00;99083.09;15274957;19;20053;-63
2024/01/25 05:08:04;;;;;;;12.98;3.10;;;;;;;6.54;100.00;99089.28;15278236;19;20030;-60
2024/01/25 05:13:29;;;;;;;12.27;3.05;;;;;;;6.54;100.00;99092.81;15283031;19;20048;-60
2024/01/25 05:18:53;;;;;;;15.57;3.10;;;;;;;6.48;100.00;99120.91;15291537;19;20011;-61
2024/01/25 05:24:21;;;;;;;14.05;3.08;;;;;;;6.47;100.00;99112.97;15290869;19;20214;-62
2024/01/25 05:29:45;;;;;;;13.15;2.83;;;;;;;6.42;100.00;99107.16;15290012;19;20082;-60
2024/01/25 05:35:10;;;;;;;13.90;2.95;;;;;;;6.36;100.00;99116.50;15284228;19;20133;-61
2024/01/25 05:40:45;;;;;;;11.98;3.03;;;;;;;6.33;100.00;99103.34;15290963;19;20106;-61
2024/01/25 05:46:09;;;;;;;14.57;2.70;;;;;;;6.31;100.00;99121.34;15282405;19;20464;-60
2024/01/25 05:51:34;;;;;;;11.27;2.60;;;;;;;6.34;100.00;99123.78;15292820;19;20451;-61
2024/01/25 05:57:03;;;;;;;9.93;2.58;;;;;;;6.33;100.00;99170.25;15281829;19;20087;-62
2024/01/25 06:02:28;;;;;;;10.55;2.28;;;;;;;6.39;100.00;99135.00;15296921;19;20010;-61
2024/01/25 06:07:52;;;;;;;9.05;2.20;;;;;;;6.39;100.00;99142.16;15298884;19;20529;-62
2024/01/25 06:13:20;;;;;;;12.18;2.33;;;;;;;6.42;100.00;99169.56;15284831;19;20035;-61
2024/01/25 06:18:44;;;;;;;10.98;2.40;;;;;;;6.45;100.00;99182.72;15286312;19;20813;-62
2024/01/25 06:24:09;;;;;;;9.30;2.45;;;;;;;6.47;100.00;99164.72;15280887;19;20025;-63
2024/01/25 06:29:36;;;;;;;9.32;2.40;;;;;;;6.46;100.00;99200.47;15278699;19;20543;-62
2024/01/25 06:34:55;;;;;;;12.95;2.83;;;;;;;6.42;100.00;99188.28;15281173;19;20324;-62
2024/01/25 06:40:27;;;;;;;12.38;2.50;;;;;;;6.38;100.00;99232.34;15280176;19;20122;-62
2024/01/25 06:45:54;;;;;;;10.03;2.30;;;;;;;6.46;100.00;99205.84;15277572;19;20447;-62
2024/01/25 06:51:19;;;;;;;7.45;2.03;;;;;;;6.48;100.00;99222.63;15281529;19;20025;-64
2024/01/25 06:56:43;;;;;;;9.60;2.28;;;;;;;6.47;100.00;99222.75;15277298;19;20027;-63
2024/01/25 07:02:11;;;;;;;9.65;2.22;;;;;;;6.50;100.00;99240.41;15281731;19;20018;-63
2024/01/25 07:07:38;;;;;;;12.50;2.13;;;;;;;6.52;100.00;99243.84;15276704;19;20018;-63
2024/01/25 07:13:03;;;;;;;11.05;2.20;;;;;;;6.52;100.00;99230.44;15282432;19;20042;-64
2024/01/25 07:18:31;;;;;;;12.27;2.40;;;;;;;6.49;100.00;99234.19;15271135;19;20025;-63
2024/01/25 07:23:56;;;;;;;6.53;1.73;;;;;;;6.47;100.00;99247.69;15279060;19;20030;-62
2024/01/25 07:29:20;;;;;;;10.02;2.15;;;;;;;6.51;100.00;99234.09;15272188;19;20027;-62
2024/01/25 07:34:48;;;;;;;8.25;2.10;;;;;;;6.50;100.00;99253.81;15276383;19;20488;-61
2024/01/25 07:40:20;;;;;;;9.18;1.90;;;;;;;6.48;100.00;99243.19;15272360;19;20047;-61
2024/01/25 07:45:44;;;;;;;7.88;2.30;;;;;;;6.48;100.00;99246.75;15273585;19;20025;-61
2024/01/25 07:51:20;;;;;;;6.75;1.70;;;;;;;6.47;100.00;99271.78;15272220;19;20014;-63
2024/01/25 07:56:44;;;;;;;8.98;2.22;;;;;;;6.50;100.00;99268.03;15274233;19;20019;-62
2024/01/25 08:02:09;;;;;;;9.15;2.05;;;;;;;6.49;100.00;99282.38;15273847;19;20188;-62
2024/01/25 08:07:41;;;;;;;9.35;2.00;;;;;;;6.53;100.00;99309.78;15272131;19;20380;-61
2024/01/25 08:13:06;;;;;;;5.97;1.60;;;;;;;6.53;100.00;99277.66;15275294;19;20095;-63
2024/01/25 08:18:31;;;;;;;6.97;1.85;;;;;;;6.56;100.00;99278.28;15268891;19;20036;-62
2024/01/25 08:23:59;;;;;;;6.53;1.70;;;;;;;6.58;100.00;99276.38;15272197;19;20021;-62
2024/01/25 08:29:24;;;;;;;6.97;1.83;;;;;;;6.61;100.00;99285.97;15259194;19;20022;-63
2024/01/25 08:34:49;;;;;;;7.65;2.05;;;;;;;6.65;100.00;99284.75;15271214;19;20018;-64
2024/01/25 08:40:24;;;;;;;9.85;1.83;;;;;;;6.66;100.00;99299.03;15268163;19;20393;-63
2024/01/25 08:45:49;;;;;;;8.82;2.33;;;;;;;6.63;100.00;99287.56;15273103;19;20019;-63
2024/01/25 08:51:14;;;;;;;9.23;2.30;;;;;;;6.60;100.00;99285.09;15285961;19;20026;-63
2024/01/25 08:56:41;;;;;;;6.43;1.60;;;;;;;6.58;100.00;99307.63;15277143;19;20317;-63
2024/01/25 09:02:06;;;;;;;7.80;2.00;;;;;;;6.50;100.00;99276.06;15291343;19;20018;-63
2024/01/25 09:07:31;;;;;;;11.00;2.10;;;;;;;6.43;100.00;99307.78;15283555;19;20077;-63
2024/01/25 09:12:58;;;;;;;7.55;1.90;;;;;;;6.43;100.00;99313.13;15285582;19;20077;-63
2024/01/25 09:18:23;;;;;;;10.35;2.22;;;;;;;6.48;100.00;99323.50;15282732;19;20085;-66
2024/01/25 09:23:48;;;;;;;9.15;1.90;;;;;;;6.50;100.00;99331.44;15288053;19;20018;-65
2024/01/25 09:29:15;;;;;;;6.05;1.52;;;;;;;6.60;100.00;99317.25;15278094;19;20038;-63
2024/01/25 09:34:41;;;;;;;7.70;2.17;;;;;;;6.74;100.00;99326.94;15288265;19;20041;-65
2024/01/25 09:40:13;;;;;;;8.65;1.70;;;;;;;6.84;100.00;99358.41;15276359;19;20035;-65
2024/01/25 09:45:40;;;;;;;8.27;2.00;;;;;;;6.89;100.00;99367.78;15282209;19;20081;-65
2024/01/25 09:51:06;;;;;;;12.23;1.90;;;;;;;6.94;100.00;99384.38;15282921;19;20087;-65
2024/01/25 09:56:35;;;;;;;6.38;1.88;;;;;;;6.97;100.00;99380.63;15282938;19;20093;-63
2024/01/25 10:02:03;;;;;;;8.60;2.13;;;;;;;6.97;100.00;99364.56;15281543;19;20025;-66
2024/01/25 10:07:42;;;;;;;7.30;1.80;;;;;;;6.98;100.00;99374.28;15026793;19;5001580;-64
2024/01/25 10:13:06;;;;;;;8.68;1.92;;;;;;;7.01;100.00;99390.13;15285021;19;20775;-65
2024/01/25 10:18:34;;;;;;;9.57;1.90;;;;;;;7.01;100.00;99406.19;15276478;19;20329;-65
2024/01/25 10:23:59;;;;;;;8.45;1.55;;;;;;;7.03;100.00;99406.94;15283694;19;20103;-65
2024/01/25 10:29:28;;;;;;;10.63;2.00;;;;;;;7.04;100.00;99403.31;15277328;19;20079;-65
2024/01/25 10:34:58;;;;;;;8.30;2.00;;;;;;;7.04;100.00;99408.66;15279072;19;20072;-65
2024/01/25 10:40:30;;;;;;;8.45;1.75;;;;;;;7.12;100.00;99389.34;15276238;19;20018;-64
2024/01/25 10:45:57;;;;;;;7.60;1.90;;;;;;;7.21;100.00;99395.84;15278576;19;20032;-64
2024/01/25 10:51:25;;;;;;;6.38;1.45;;;;;;;7.22;100.00;99386.81;15277523;19;20471;-65
2024/01/25 10:56:50;;;;;;;8.23;1.73;;;;;;;7.08;100.00;99407.47;15279609;19;20025;-65
2024/01/25 11:02:15;;;;;;;7.65;1.80;;;;;;;7.07;100.00;99415.59;15283709;19;20018;-64
2024/01/25 11:07:50;;;;;;;6.53;1.83;;;;;;;7.00;100.00;99412.53;15273173;19;20028;-66
2024/01/25 11:13:23;;;;;;;8.35;2.08;;;;;;;6.93;100.00;99398.75;15282774;19;20087;-65
2024/01/25 11:18:52;;;;;;;7.13;1.60;;;;;;;6.91;100.00;99378.38;15274002;19;20115;-65
2024/01/25 11:24:25;;;;;;;7.05;1.52;;;;;;;6.96;100.00;99375.34;15277476;19;20034;-64
2024/01/25 11:29:51;;;;;;;7.25;1.80;;;;;;;6.95;100.00;99379.88;15020465;19;5001064;-65
2024/01/25 11:35:18;;;;;;;6.75;1.70;;;;;;;6.90;100.00;99372.19;15280606;19;20014;-64
2024/01/25 11:40:54;;;;;;;4.95;1.50;;;;;;;6.83;100.00;99388.81;15275041;19;20366;-64
2024/01/25 11:46:20;;;;;;;6.78;1.70;;;;;;;6.85;100.00;99381.53;15274430;19;20080;-64
2024/01/25 11:51:45;;;;;;;7.10;1.55;;;;;;;6.82;100.00;99385.28;15272025;19;20033;-65
2024/01/25 11:57:13;;;;;;;8.18;1.80;;;;;;;6.88;100.00;99384.84;15270296;19;20079;-64
2024/01/25 12:02:38;;;;;;;7.68;1.92;;;;;;;7.02;100.00;99375.75;15277488;19;20147;-65
2024/01/25 12:08:04;;;;;;;6.50;1.58;;;;;;;7.08;100.00;99372.63;15274463;19;20140;-65
2024/01/25 12:13:33;;;;;;;7.05;2.10;;;;;;;7.12;100.00;99365.22;15279516;19;20034;-65
2024/01/25 12:18:59;;;;;;;7.43;1.98;;;;;;;7.14;100.00;99367.75;15279877;19;20025;-64
2024/01/25 12:24:24;;;;;;;6.40;1.77;;;;;;;7.13;100.00;99366.94;15287938;19;20085;-66
2024/01/25 12:29:53;;;;;;;6.55;1.90;;;;;;;7.19;100.00;99362.94;15292520;19;20087;-66
2024/01/25 12:35:19;;;;;;;8.73;1.88;;;;;;;7.31;100.00;99342.34;15290761;19;20516;-65
2024/01/25 12:40:51;;;;;;;8.65;2.03;;;;;;;7.34;100.00;99367.13;15280641;19;20021;-65
2024/01/25 12:46:18;;;;;;;9.80;2.08;;;;;;;7.23;100.00;99375.13;15289476;19;20041;-66
2024/01/25 12:51:45;;;;;;;7.30;1.90;;;;;;;7.11;100.00;99390.31;15284823;19;20474;-65
2024/01/25 12:57:12;;;;;;;7.63;1.83;;;;;;;7.05;100.00;99375.53;15283834;19;20038;-65
2024/01/25 13:02:39;;;;;;;7.50;1.70;;;;;;;7.06;100.00;99401.38;15290226;19;20018;-65
2024/01/25 13:08:05;;;;;;;5.63;1.73;;;;;;;7.09;100.00;99394.91;15290815;19;20090;-65
2024/01/25 13:13:30;;;;;;;8.20;2.15;;;;;;;7.12;100.00;99381.28;15286616;19;20428;-66
2024/01/25 13:18:58;;;;;;;8.15;1.95;;;;;;;7.14;100.00;99376.69;15288586;19;20185;-65
2024/01/25 13:24:23;;;;;;;7.28;1.83;;;;;;;7.14;100.00;99371.31;15289237;19;20022;-65
2024/01/25 13:29:48;;;;;;;7.57;1.70;;;;;;;7.16;100.00;99372.06;15285680;19;20508;-65
2024/01/25 13:35:16;;;;;;;8.35;2.00;;;;;;;7.14;100.00;99373.13;15280951;19;20448;-64
2024/01/25 13:40:42;;;;;;;8.02;1.80;;;;;;;7.12;100.00;99359.84;15280494;19;20036;-65
2024/01/25 13:46:07;;;;;;;9.43;2.00;;;;;;;7.09;100.00;99360.94;15277394;19;20478;-65
2024/01/25 13:51:34;;;;;;;9.63;1.90;;;;;;;7.05;100.00;99347.91;15281780;19;20110;-65
2024/01/25 13:56:59;;;;;;;6.85;1.90;;;;;;;7.03;100.00;99344.47;15281347;19;20088;-65
2024/01/25 14:02:24;;;;;;;5.88;1.42;;;;;;;7.00;100.00;99342.84;15284401;19;20018;-64
2024/01/25 14:07:51;;;;;;;7.63;1.83;;;;;;;6.98;100.00;99341.28;15277319;19;20037;-64
2024/01/25 14:13:17;;;;;;;8.27;1.70;;;;;;;6.98;100.00;99344.81;15270475;19;20010;-64
2024/01/25 14:18:46;;;;;;;5.93;1.65;;;;;;;6.96;100.00;99344.09;15276014;19;20022;-64
2024/01/25 14:24:14;;;;;;;6.82;2.00;;;;;;;6.92;100.00;99337.25;15292028;19;20115;-66
2024/01/25 14:29:42;;;;;;;6.95;1.60;;;;;;;6.86;100.00;99337.72;15282945;19;20142;-65
2024/01/25 14:35:09;;;;;;;6.57;1.63;;;;;;;6.87;100.00;99345.63;15262300;19;20079;-65
2024/01/25 14:40:37;;;;;;;4.45;1.55;;;;;;;6.82;100.00;99334.38;15283225;19;20455;-65
2024/01/25 14:46:17;;;;;;;8.13;1.40;;;;;;;6.80;100.00;99328.31;15280693;19;20014;-65
2024/01/25 14:51:43;;;;;;;8.77;2.03;;;;;;;6.78;100.00;99340.97;15275872;19;20380;-64
2024/01/25 14:57:14;;;;;;;8.60;1.83;;;;;;;6.75;100.00;99351.88;15275358;19;20460;-64
2024/01/25 15:02:39;;;;;;;8.63;1.90;;;;;;;6.74;100.00;99350.19;15284202;19;20013;-64
2024/01/25 15:08:05;;;;;;;9.48;1.92;;;;;;;6.75;100.00;99339.38;15281586;19;20018;-64
2024/01/25 15:13:33;;;;;;;7.75;1.88;;;;;;;6.73;100.00;99341.31;15278058;19;20022;-65
2024/01/25 15:18:59;;;;;;;8.95;1.95;;;;;;;6.67;100.00;99324.84;15282391;19;20020;-64
2024/01/25 15:24:23;;;;;;;4.72;1.40;;;;;;;6.56;100.00;99331.84;15273800;19;20018;-65
2024/01/25 15:29:51;;;;;;;9.32;2.00;;;;;;;6.46;100.00;99330.81;15280323;19;20066;-63
2024/01/25 15:35:16;;;;;;;8.63;1.83;;;;;;;6.33;100.00;99333.50;15278888;19;20014;-64
2024/01/25 15:40:47;;;;;;;6.18;1.58;;;;;;;6.23;100.00;99343.19;15275825;19;20021;-65
2024/01/25 15:46:14;;;;;;;9.30;1.93;;;;;;;6.10;100.00;99349.41;15275389;19;20015;-65
2024/01/25 15:51:39;;;;;;;7.22;1.70;;;;;;;5.98;100.00;99353.81;15275324;19;20029;-64
2024/01/25 15:57:08;;;;;;;8.02;1.80;;;;;;;5.86;100.00;99349.31;15262130;19;20038;-64
2024/01/25 16:02:35;;;;;;;5.90;1.92;;;;;;;5.77;100.00;99355.28;15250907;19;20024;-65
2024/01/25 16:08:00;;;;;;;8.10;1.80;;;;;;;5.67;100.00;99355.09;15276134;19;20025;-64
2024/01/25 16:13:25;;;;;;;7.38;1.92;;;;;;;5.62;100.00;99363.44;15266843;19;20018;-64
2024/01/25 16:18:52;;;;;;;8.15;2.20;;;;;;;5.62;100.00;99367.91;15272623;19;20078;-65
2024/01/25 16:24:22;;;;;;;11.45;2.38;;;;;;;5.60;100.00;99360.00;15274405;19;20054;-64
2024/01/25 16:29:47;;;;;;;9.93;2.20;;;;;;;5.61;100.00;99331.44;15269832;19;20367;-63
2024/01/25 16:35:15;;;;;;;7.10;1.92;;;;;;;5.62;100.00;99325.13;15272793;19;20046;-64
2024/01/25 16:40:46;;;;;;;6.82;1.95;;;;;;;5.59;100.00;99333.38;15272431;19;20026;-63
2024/01/25 16:46:11;;;;;;;7.97;2.23;;;;;;;5.65;100.00;99340.97;15271037;19;20470;-64
2024/01/25 16:51:39;;;;;;;11.43;2.50;;;;;;;5.71;100.00;99343.19;15270775;19;20535;-64
2024/01/25 16:57:04;;;;;;;9.23;2.25;;;;;;;5.73;100.00;99348.47;15277550;19;20018;-64
2024/01/25 17:02:29;;;;;;;10.10;2.20;;;;;;;5.75;100.00;99352.72;15285728;19;20018;-64
2024/01/25 17:07:56;;;;;;;6.78;2.05;;;;;;;5.74;100.00;99352.84;15271801;19;20013;-65
2024/01/25 17:13:22;;;;;;;8.18;2.00;;;;;;;5.71;100.00;99341.41;15282840;19;20523;-65
2024/01/25 17:18:47;;;;;;;8.93;2.15;;;;;;;5.74;100.00;99344.84;15286326;19;20789;-65
2024/01/25 17:24:14;;;;;;;9.43;2.33;;;;;;;5.78;100.00;99340.97;15286886;19;20456;-64
2024/01/25 17:29:39;;;;;;;8.60;2.10;;;;;;;5.76;100.00;99341.06;15285666;19;20015;-65
2024/01/25 17:35:04;;;;;;;10.02;2.35;;;;;;;5.72;100.00;99336.91;15279355;19;20882;-65
2024/01/25 17:40:38;;;;;;;10.18;2.50;;;;;;;5.65;100.00;99341.81;15279777;19;20070;-63
2024/01/25 17:46:03;;;;;;;10.25;2.28;;;;;;;5.61;100.00;99336.78;15281466;19;20031;-62
2024/01/25 17:51:28;;;;;;;10.15;2.70;;;;;;;5.55;100.00;99336.28;15276770;19;20084;-63
2024/01/25 17:56:57;;;;;;;12.32;2.55;;;;;;;5.40;100.00;99340.00;15287019;19;20010;-64
2024/01/25 18:02:23;;;;;;;10.88;2.65;;;;;;;5.24;100.00;99343.72;15294572;19;20015;-64
2024/01/25 18:07:48;;;;;;;9.18;2.45;;;;;;;5.16;100.00;99350.56;15277513;19;20014;-63
2024/01/25 18:13:15;;;;;;;9.00;3.00;;;;;;;4.99;100.00;99339.19;15280660;19;20078;-64
2024/01/25 18:18:40;;;;;;;10.50;3.50;;;;;;;4.87;100.00;99346.22;15281238;19;20010;-63
2024/01/25 18:24:04;;;;;;;8.48;2.80;;;;;;;4.80;100.00;99349.38;15284732;19;20010;-63
2024/01/25 18:29:33;;;;;;;10.35;3.03;;;;;;;4.70;100.00;99360.69;15282879;19;20362;-63
2024/01/25 18:34:57;;;;;;;13.40;3.15;;;;;;;4.70;100.00;99373.16;15277052;19;20018;-64
2024/01/25 18:40:28;;;;;;;10.43;3.60;;;;;;;4.80;100.00;99366.25;15277341;19;20110;-62
2024/01/25 18:45:56;;;;;;;14.17;3.77;;;;;;;4.84;100.00;99348.22;15278417;19;20018;-62
2024/01/25 18:51:22;;;;;;;9.13;3.20;;;;;;;4.83;100.00;99360.72;15276709;19;21002;-60
2024/01/25 18:56:48;;;;;;;11.43;3.10;;;;;;;4.77;100.00;99342.41;15278487;19;20019;-61
2024/01/25 19:02:16;;;;;;;12.07;3.28;;;;;;;4.70;100.00;99349.13;15278860;19;20041;-60
2024/01/25 19:07:42;;;;;;;10.82;2.92;;;;;;;4.57;100.00;99351.75;15255569;19;20074;-61
2024/01/25 19:13:07;;;;;;;13.23;3.78;;;;;;;4.50;100.00;99361.09;15272143;19;20756;-61
2024/01/25 19:18:34;;;;;;;13.15;3.30;;;;;;;4.39;100.00;99361.81;15275925;19;20531;-60
2024/01/25 19:23:59;;;;;;;12.27;3.53;;;;;;;4.38;100.00;99354.75;15276026;19;20025;-59
2024/01/25 19:29:25;;;;;;;12.82;3.70;;;;;;;4.32;100.00;99372.88;15266626;19;20036;-61
2024/01/25 19:34:53;;;;;;;12.55;3.63;;;;;;;4.21;100.00;99367.34;15265738;19;20019;-62
2024/01/25 19:40:25;;;;;;;10.50;3.17;;;;;;;4.15;100.00;99375.75;15268038;19;20014;-61
2024/01/25 19:45:51;;;;;;;10.33;3.40;;;;;;;4.16;100.00;99364.16;15277821;19;20400;-61
2024/01/25 19:51:18;;;;;;;12.43;3.67;;;;;;;4.17;100.00;99368.53;15268364;19;20021;-61
2024/01/25 19:56:43;;;;;;;14.18;3.67;;;;;;;4.09;100.00;99369.00;15277272;19;20018;-63
2024/01/25 20:02:09;;;;;;;11.52;3.40;;;;;;;4.07;100.00;99372.69;15277732;19;20642;-62
2024/01/25 20:07:38;;;;;;;13.75;4.35;;;;;;;3.99;100.00;99374.03;15265390;19;20020;-63
2024/01/25 20:13:06;;;;;;;13.23;3.78;;;;;;;3.96;100.00;99384.91;15262511;19;20010;-62
2024/01/25 20:18:31;;;;;;;10.90;3.33;;;;;;;3.90;100.00;99393.28;15266993;19;20034;-61
2024/01/25 20:23:58;;;;;;;11.68;3.45;;;;;;;3.85;100.00;99380.25;15272337;19;20037;-60
2024/01/25 20:29:23;;;;;;;11.25;3.53;;;;;;;3.81;100.00;99396.53;15275402;19;20021;-80
2024/01/25 20:34:47;;;;;;;12.25;3.65;;;;;;;3.82;100.00;99398.25;15277432;19;20021;-80
2024/01/25 20:40:15;;;;;;;11.52;3.80;;;;;;;3.84;100.00;99388.31;15272418;19;20021;-80
2024/01/25 20:45:40;;;;;;;8.15;2.85;;;;;;;3.82;100.00;99383.09;15292726;19;20081;-79
2024/01/25 20:51:05;;;;;;;10.32;3.53;;;;;;;3.80;100.00;99381.47;15293993;19;20507;-79
2024/01/25 20:56:33;;;;;;;10.15;3.33;;;;;;;3.82;100.00;99379.59;15300665;19;20082;-80
2024/01/25 21:02:00;;;;;;;9.40;3.55;;;;;;;3.86;100.00;99370.44;15298111;19;20011;-78
2024/01/25 21:07:26;;;;;;;14.45;3.38;;;;;;;3.89;100.00;99358.69;15294176;19;20050;-78
2024/01/25 21:12:54;;;;;;;13.50;3.90;;;;;;;3.91;100.00;99368.34;15292192;19;20024;-79
2024/01/25 21:18:18;;;;;;;11.13;3.58;;;;;;;3.93;100.00;99366.44;15282982;19;20032;-79
2024/01/25 21:23:43;;;;;;;10.65;3.22;;;;;;;3.95;100.00;99353.84;15292532;19;20077;-78
2024/01/25 21:29:10;;;;;;;13.40;3.10;;;;;;;4.00;100.00;99358.88;15285820;19;20591;-78
2024/01/25 21:34:35;;;;;;;11.45;3.38;;;;;;;4.00;100.00;99351.75;15298311;19;20031;-78
2024/01/25 21:39:59;;;;;;;10.88;3.40;;;;;;;4.04;100.00;99359.56;15294261;19;20046;-78
2024/01/25 21:45:26;;;;;;;13.25;3.22;;;;;;;4.07;100.00;99346.03;15303627;19;20019;-79
2024/01/25 21:50:52;;;;;;;13.77;3.05;;;;;;;4.09;100.00;99352.13;15297974;19;20071;-79
2024/01/25 21:56:17;;;;;;;11.20;3.30;;;;;;;4.10;100.00;99351.19;15300516;19;20015;-77
2024/01/25 22:01:44;;;;;;;12.30;3.20;;;;;;;4.11;100.00;99339.56;15296809;19;20054;-78
2024/01/25 22:07:09;;;;;;;10.93;3.08;;;;;;;4.13;100.00;99330.50;15302614;19;20021;-77
2024/01/25 22:12:34;;;;;;;8.52;2.75;;;;;;;4.12;100.00;99312.78;15292432;19;20345;-79
2024/01/25 22:18:01;;;;;;;11.05;2.88;;;;;;;4.12;100.00;99312.78;15288818;19;20024;-79
2024/01/25 22:23:28;;;;;;;8.23;2.67;;;;;;;4.10;100.00;99316.50;15290593;19;20211;-78
2024/01/25 22:28:53;;;;;;;9.68;2.83;;;;;;;4.12;100.00;99311.94;15289956;19;20019;-78
2024/01/25 22:34:20;;;;;;;10.18;3.30;;;;;;;4.10;100.00;99303.19;15290301;19;20643;-78
2024/01/25 22:39:45;;;;;;;10.38;3.00;;;;;;;4.10;100.00;99308.50;15276867;19;20022;-78
2024/01/25 22:45:11;;;;;;;10.63;2.92;;;;;;;4.08;100.00;99321.94;15291067;19;20623;-79
2024/01/25 22:50:38;;;;;;;10.02;2.67;;;;;;;4.06;100.00;99323.84;15287714;19;20013;-78
2024/01/25 22:56:03;;;;;;;12.65;3.10;;;;;;;4.05;100.00;99321.28;15284299;19;20085;-78
2024/01/25 23:01:28;;;;;;;11.75;3.00;;;;;;;4.06;100.00;99318.53;15291997;19;20094;-79
2024/01/25 23:06:55;;;;;;;13.23;2.90;;;;;;;4.08;100.00;99313.06;15295627;19;20078;-78
2024/01/25 23:12:22;;;;;;;12.25;3.30;;;;;;;4.08;100.00;99321.94;15296668;19;20090;-80
2024/01/25 23:17:59;;;;;;;10.35;3.10;;;;;;;4.09;100.00;99312.13;15323497;19;20031;-78
2024/01/25 23:23:27;;;;;;;11.02;3.30;;;;;;;4.10;100.00;99309.38;15304762;19;20468;-79
2024/01/25 23:28:52;;;;;;;11.48;3.30;;;;;;;4.10;100.00;99313.84;15284420;19;20019;-79
2024/01/25 23:34:18;;;;;;;10.30;2.85;;;;;;;4.12;100.00;99302.09;15284954;19;20030;-79
2024/01/25 23:39:45;;;;;;;11.07;3.60;;;;;;;4.12;100.00;99293.28;15281073;19;20501;-79
2024/01/25 23:45:11;;;;;;;10.52;3.10;;;;;;;4.12;100.00;99282.59;15283483;19;20043;-78
2024/01/25 23:50:35;;;;;;;11.80;3.13;;;;;;;4.12;100.00;99285.28;15275979;19;20074;-79
2024/01/25 23:56:02;;;;;;;9.38;3.17;;;;;;;4.11;100.00;99284.44;15278275;19;20017;-79
